Time;durP1;ratioP1;P1;durP2;ratioP2;P2;SDS_P1;SDS_P2;PMS_P1;PMS_P2;Temp;Humidity;BMP_temperature;BMP_pressure;BME280_temperature;BME280_humidity;BME280_pressure;Samples;Min_cycle;Max_cycle;Signal;HPM_P1;HPM_P2
2023/12/03 00:02:06;;;;;;;9.75;6.45;;;;;;;8.76;59.80;101837.47;5027741;28;20039;-55
2023/12/03 00:04:32;;;;;;;11.80;6.93;;;;;;;8.76;59.63;101833.00;5029599;28;20495;-56
2023/12/03 00:06:57;;;;;;;13.90;6.97;;;;;;;8.77;59.67;101845.34;5030009;28;20102;-55
2023/12/03 00:09:23;;;;;;;12.15;7.10;;;;;;;8.76;59.49;101843.63;5043159;28;20045;-55
2023/12/03 00:11:48;;;;;;;10.30;7.32;;;;;;;8.76;59.69;101843.63;5030026;28;20021;-55
2023/12/03 00:14:13;;;;;;;9.73;6.22;;;;;;;8.76;59.57;101846.28;5030407;28;20095;-55
2023/12/03 00:16:39;;;;;;;10.73;7.18;;;;;;;8.77;59.51;101841.81;5033736;28;20116;-55
2023/12/03 00:19:04;;;;;;;10.63;7.05;;;;;;;8.76;59.65;101848.09;5029776;28;20060;-55
2023/12/03 00:21:30;;;;;;;9.98;6.65;;;;;;;8.76;59.46;101843.63;5028538;28;20541;-55
2023/12/03 00:23:55;;;;;;;10.18;6.50;;;;;;;8.76;59.49;101842.78;5028996;28;20407;-56
2023/12/03 00:26:21;;;;;;;12.18;7.30;;;;;;;8.76;59.75;101848.94;5029356;28;20039;-56
2023/12/03 00:28:46;;;;;;;11.13;6.82;;;;;;;8.76;59.67;101848.09;5034472;28;20029;-55
2023/12/03 00:31:11;;;;;;;10.77;6.72;;;;;;;8.76;59.49;101850.75;5026332;28;20037;-55
2023/12/03 00:33:37;;;;;;;10.25;7.15;;;;;;;8.75;59.55;101846.34;5029168;28;20037;-55
2023/12/03 00:36:02;;;;;;;10.98;6.80;;;;;;;8.75;59.55;101849.00;5030029;28;20537;-56
2023/12/03 00:38:27;;;;;;;9.13;6.78;;;;;;;8.75;59.75;101856.97;5028306;28;20037;-56
2023/12/03 00:40:53;;;;;;;10.77;7.18;;;;;;;8.75;59.57;101847.19;5028771;28;20037;-56
2023/12/03 00:43:18;;;;;;;9.35;6.55;;;;;;;8.75;59.43;101847.19;5027957;28;20033;-56
2023/12/03 00:45:44;;;;;;;9.98;6.25;;;;;;;8.74;59.57;101848.13;5030838;28;20033;-56
2023/12/03 00:48:09;;;;;;;11.20;7.18;;;;;;;8.74;59.48;101842.81;5030695;28;20514;-56
2023/12/03 00:50:34;;;;;;;11.20;6.40;;;;;;;8.75;59.47;101847.19;5027834;28;20038;-55
2023/12/03 00:53:00;;;;;;;8.32;5.75;;;;;;;8.76;59.43;101858.72;5028554;28;20030;-56
2023/12/03 00:55:25;;;;;;;8.23;5.88;;;;;;;8.75;59.45;101851.66;5028755;28;20112;-56
2023/12/03 00:57:50;;;;;;;8.68;6.05;;;;;;;8.74;59.33;101852.59;5027918;28;20391;-56
2023/12/03 01:00:17;;;;;;;9.38;5.80;;;;;;;8.75;59.43;101851.66;5025399;28;20483;-55
2023/12/03 01:02:42;;;;;;;9.70;6.10;;;;;;;8.74;59.46;101866.72;5029146;28;20041;-56
2023/12/03 01:05:08;;;;;;;8.88;6.30;;;;;;;8.74;59.55;101861.41;5027623;28;20050;-55
2023/12/03 01:07:33;;;;;;;9.60;6.13;;;;;;;8.74;59.52;101863.22;5028532;28;20463;-55
2023/12/03 01:09:58;;;;;;;9.27;6.00;;;;;;;8.74;59.65;101863.22;5027852;28;20033;-55
2023/12/03 01:12:24;;;;;;;8.70;5.97;;;;;;;8.73;59.64;101861.47;5026700;28;20475;-56
2023/12/03 01:14:49;;;;;;;8.88;5.70;;;;;;;8.74;59.61;101866.72;5027393;28;20471;-56
2023/12/03 01:17:15;;;;;;;8.75;5.72;;;;;;;8.75;59.65;101864.94;5027551;28;20069;-56
2023/12/03 01:19:40;;;;;;;8.77;6.25;;;;;;;8.74;59.56;101865.88;5028653;28;20029;-56
2023/12/03 01:22:05;;;;;;;9.40;6.20;;;;;;;8.73;59.71;101869.44;5031184;28;20532;-55
2023/12/03 01:24:31;;;;;;;8.07;5.90;;;;;;;8.73;59.62;101864.97;5029710;28;20485;-56
2023/12/03 01:26:56;;;;;;;9.65;6.05;;;;;;;8.73;59.58;101872.94;5027903;28;20041;-56
2023/12/03 01:29:22;;;;;;;8.55;5.88;;;;;;;8.73;59.60;101880.06;5028327;28;20079;-56
2023/12/03 01:31:47;;;;;;;10.07;6.25;;;;;;;8.73;59.63;101870.28;5027497;28;20029;-56
2023/12/03 01:34:12;;;;;;;8.35;5.93;;;;;;;8.73;59.66;101875.59;5028543;28;20124;-56
2023/12/03 01:36:38;;;;;;;7.82;5.63;;;;;;;8.73;59.63;101872.09;5027018;28;20476;-56
2023/12/03 01:39:05;;;;;;;8.48;5.53;;;;;;;8.73;59.50;101869.44;5031000;28;20098;-56
2023/12/03 01:41:31;;;;;;;8.13;5.65;;;;;;;8.72;59.58;101865.94;5027667;28;20120;-56
2023/12/03 01:43:56;;;;;;;9.02;6.20;;;;;;;8.73;59.70;101869.44;5027005;28;20120;-56
2023/12/03 01:46:22;;;;;;;8.95;6.10;;;;;;;8.73;59.63;101877.41;5027281;28;20029;-56
2023/12/03 01:48:49;;;;;;;8.77;5.75;;;;;;;8.72;59.53;101873.00;5025341;28;20443;-56
2023/12/03 01:51:15;;;;;;;7.80;5.20;;;;;;;8.72;59.66;101873.88;5030897;28;20045;-56
2023/12/03 01:53:43;;;;;;;8.77;5.95;;;;;;;8.72;59.62;101878.31;5027454;28;20494;-56
2023/12/03 01:56:10;;;;;;;7.60;5.47;;;;;;;8.71;59.68;101882.75;5026538;28;20038;-56
2023/12/03 01:58:35;;;;;;;9.15;5.57;;;;;;;8.71;59.60;101877.47;5027312;28;20026;-56
2023/12/03 02:01:01;;;;;;;7.32;5.20;;;;;;;8.72;59.50;101875.66;5023951;28;20037;-56
2023/12/03 02:03:27;;;;;;;11.15;6.57;;;;;;;8.72;59.64;101880.97;5030090;28;20061;-56
2023/12/03 02:06:09;;;;;;;9.70;6.20;;;;;;;8.72;59.69;101889.81;5026936;28;20049;-56
2023/12/03 02:08:35;;;;;;;6.90;5.13;;;;;;;8.72;59.63;101883.63;5027567;28;20045;-56
2023/12/03 02:11:02;;;;;;;7.95;5.50;;;;;;;8.70;59.72;101875.75;5030393;28;20430;-55
2023/12/03 02:13:31;;;;;;;9.63;5.90;;;;;;;8.71;59.67;101879.25;5027050;28;20056;-56
2023/12/03 02:15:57;;;;;;;8.13;5.43;;;;;;;8.71;59.66;101876.59;5030028;28;20108;-56
2023/12/03 02:18:23;;;;;;;9.40;5.43;;;;;;;8.71;59.49;101887.22;5028674;28;20112;-56
2023/12/03 02:20:48;;;;;;;8.70;6.00;;;;;;;8.71;59.68;101889.88;5028861;28;20033;-56
2023/12/03 02:23:14;;;;;;;8.35;5.68;;;;;;;8.71;59.64;101888.06;5030677;28;20096;-56
2023/12/03 02:25:41;;;;;;;7.20;5.03;;;;;;;8.70;59.64;101885.47;5026738;28;20061;-56
2023/12/03 02:28:06;;;;;;;7.00;5.03;;;;;;;8.70;59.62;101890.78;5027200;28;20490;-56
2023/12/03 02:30:31;;;;;;;7.95;5.68;;;;;;;8.70;59.57;101899.63;5026133;28;20037;-55
2023/12/03 02:32:57;;;;;;;7.88;4.93;;;;;;;8.70;59.75;101896.97;5027016;28;20072;-56
2023/12/03 02:35:22;;;;;;;8.10;5.78;;;;;;;8.71;59.63;101908.47;5030619;28;20112;-56
2023/12/03 02:37:47;;;;;;;8.82;5.47;;;;;;;8.70;59.64;101907.59;5027063;28;20083;-55
2023/12/03 02:40:13;;;;;;;7.45;5.18;;;;;;;8.70;59.46;101896.09;5027132;28;20475;-55
2023/12/03 02:42:38;;;;;;;9.82;6.22;;;;;;;8.70;59.58;101896.09;5027663;28;20037;-56
2023/12/03 02:45:05;;;;;;;7.82;5.70;;;;;;;8.70;59.60;101896.09;5027016;28;20033;-56
2023/12/03 02:47:30;;;;;;;9.38;6.07;;;;;;;8.70;59.58;101896.97;5027007;28;20479;-55
2023/12/03 02:49:55;;;;;;;8.35;5.28;;;;;;;8.70;59.61;101896.09;5027865;28;20034;-55
2023/12/03 02:52:21;;;;;;;8.43;4.88;;;;;;;8.70;59.68;101891.69;5026468;28;20041;-56
2023/12/03 02:54:46;;;;;;;6.80;5.20;;;;;;;8.69;59.55;101889.06;5028266;28;20032;-56
2023/12/03 02:57:11;;;;;;;7.55;5.38;;;;;;;8.69;59.61;101894.38;5029988;28;20112;-56
2023/12/03 02:59:37;;;;;;;6.85;5.15;;;;;;;8.70;59.58;101896.09;5022777;28;20034;-55
2023/12/03 03:02:02;;;;;;;7.20;5.28;;;;;;;8.68;59.71;101898.84;5026138;28;20075;-56
2023/12/03 03:04:28;;;;;;;7.68;5.38;;;;;;;8.68;59.63;101898.84;5028196;28;20053;-55
2023/12/03 03:06:53;;;;;;;8.85;5.75;;;;;;;8.69;59.61;101891.72;5032623;28;20487;-56
2023/12/03 03:09:18;;;;;;;7.25;5.28;;;;;;;8.68;59.70;101888.22;5031239;28;20505;-55
2023/12/03 03:11:44;;;;;;;7.35;4.88;;;;;;;8.68;59.64;101893.53;5030175;28;20038;-56
2023/12/03 03:14:09;;;;;;;7.53;4.93;;;;;;;8.68;59.63;101893.53;5030643;28;20041;-56
2023/12/03 03:16:35;;;;;;;7.65;5.28;;;;;;;8.67;59.62;101889.13;5033219;28;20033;-55
2023/12/03 03:19:00;;;;;;;5.88;4.68;;;;;;;8.68;59.61;101892.63;5033638;28;20037;-56
2023/12/03 03:21:26;;;;;;;7.88;5.60;;;;;;;8.68;59.64;101892.63;5030413;28;20033;-55
2023/12/03 03:23:51;;;;;;;6.70;4.90;;;;;;;8.67;59.55;101881.16;5029263;28;20116;-56
2023/12/03 03:26:16;;;;;;;9.70;5.38;;;;;;;8.67;59.76;101896.22;5033841;28;20039;-56
2023/12/03 03:28:42;;;;;;;6.95;5.00;;;;;;;8.68;59.61;101896.19;5030427;28;20044;-56
2023/12/03 03:31:07;;;;;;;8.65;5.15;;;;;;;8.67;59.48;101888.28;5029341;28;20029;-56
2023/12/03 03:33:32;;;;;;;7.68;5.32;;;;;;;8.67;59.80;101885.63;5030382;28;20557;-55
2023/12/03 03:35:58;;;;;;;5.72;5.13;;;;;;;8.68;59.70;101897.94;5027511;28;20443;-56
2023/12/03 03:38:23;;;;;;;7.22;5.07;;;;;;;8.67;59.63;101891.78;5029749;28;20044;-56
2023/12/03 03:40:48;;;;;;;7.07;5.13;;;;;;;8.68;59.79;101889.97;5030125;28;20069;-56
2023/12/03 03:43:14;;;;;;;6.70;4.75;;;;;;;8.68;59.68;101892.63;5029035;28;20080;-56
2023/12/03 03:45:39;;;;;;;9.23;5.57;;;;;;;8.67;59.72;101898.88;5026900;28;20029;-56
2023/12/03 03:48:05;;;;;;;7.97;5.18;;;;;;;8.67;59.49;101897.09;5028607;28;20038;-56
2023/12/03 03:50:30;;;;;;;7.07;5.28;;;;;;;8.67;59.70;101905.06;5030918;28;20038;-56
2023/12/03 03:52:56;;;;;;;5.82;4.68;;;;;;;8.66;59.83;101905.97;5029776;28;20108;-56
2023/12/03 03:55:21;;;;;;;7.65;5.45;;;;;;;8.65;59.67;101898.94;5030373;28;20431;-56
2023/12/03 03:57:47;;;;;;;6.85;5.03;;;;;;;8.66;59.72;101905.97;5029026;28;20124;-56
2023/12/03 04:00:13;;;;;;;7.78;5.20;;;;;;;8.66;59.62;101905.97;5047872;28;20163;-56
2023/12/03 04:02:38;;;;;;;7.13;5.32;;;;;;;8.66;59.76;101910.41;5035483;28;20099;-56
2023/12/03 04:05:04;;;;;;;6.93;5.00;;;;;;;8.65;59.65;101917.53;5028819;28;20057;-56
2023/12/03 04:07:29;;;;;;;6.93;5.25;;;;;;;8.65;59.64;101912.22;5029423;28;20046;-56
2023/12/03 04:09:55;;;;;;;7.05;4.57;;;;;;;8.66;59.78;101913.06;5028854;28;20049;-57
2023/12/03 04:12:20;;;;;;;6.55;4.82;;;;;;;8.64;59.72;101902.50;5032959;28;20140;-56
2023/12/03 04:14:46;;;;;;;8.13;5.00;;;;;;;8.65;59.70;101908.72;5031860;28;20113;-56
2023/12/03 04:17:11;;;;;;;6.57;5.22;;;;;;;8.65;59.63;101908.72;5024722;28;20037;-56
2023/12/03 04:19:36;;;;;;;6.85;4.68;;;;;;;8.64;59.64;101912.28;5029034;28;20164;-56
2023/12/03 04:22:02;;;;;;;8.00;4.97;;;;;;;8.64;59.71;101905.16;5031851;28;20049;-56
2023/12/03 04:24:27;;;;;;;6.82;4.88;;;;;;;8.64;59.77;101912.28;5043495;28;20376;-56
2023/12/03 04:26:53;;;;;;;6.50;4.85;;;;;;;8.65;59.78;101916.66;5030043;28;20096;-56
2023/12/03 04:29:18;;;;;;;5.85;5.05;;;;;;;8.63;59.67;101922.03;5029572;28;20033;-56
2023/12/03 04:31:43;;;;;;;6.82;5.03;;;;;;;8.63;59.53;101922.03;5026524;28;20703;-56
2023/12/03 04:34:09;;;;;;;8.00;5.20;;;;;;;8.64;59.72;101925.53;5029387;28;20033;-56
2023/12/03 04:36:34;;;;;;;6.63;4.78;;;;;;;8.63;59.61;101927.34;5029528;28;20410;-56
2023/12/03 04:38:59;;;;;;;6.03;4.65;;;;;;;8.65;59.65;101919.31;5029174;28;20028;-56
2023/12/03 04:41:34;;;;;;;8.30;5.32;;;;;;;8.63;59.68;101911.41;5029534;28;20100;-56
2023/12/03 04:43:59;;;;;;;7.13;4.97;;;;;;;8.63;59.60;101922.03;5024281;28;20161;-56
2023/12/03 04:46:24;;;;;;;6.72;4.97;;;;;;;8.64;59.73;101922.88;5029040;28;20116;-56
2023/12/03 04:48:50;;;;;;;7.18;4.95;;;;;;;8.64;59.77;101928.19;5030667;28;20040;-56
2023/12/03 04:51:15;;;;;;;8.77;5.47;;;;;;;8.63;59.83;101929.16;5028589;28;20407;-56
2023/12/03 04:53:41;;;;;;;6.88;5.20;;;;;;;8.63;59.67;101931.78;5028873;28;20112;-56
2023/12/03 04:56:07;;;;;;;7.57;5.28;;;;;;;8.63;59.69;101929.16;5029132;28;20025;-56
2023/12/03 04:58:33;;;;;;;5.60;4.75;;;;;;;8.61;59.77;101930.06;5032099;28;20167;-56
2023/12/03 05:00:58;;;;;;;7.75;5.07;;;;;;;8.62;59.70;101930.91;5027282;28;20676;-56
2023/12/03 05:03:23;;;;;;;7.03;5.10;;;;;;;8.61;59.54;101930.06;5029278;28;20049;-56
2023/12/03 05:05:49;;;;;;;6.63;4.85;;;;;;;8.62;59.80;101936.22;5026750;28;20058;-56
2023/12/03 05:08:14;;;;;;;7.60;4.88;;;;;;;8.61;59.74;101939.81;5031739;28;20044;-56
2023/12/03 05:10:39;;;;;;;6.97;5.05;;;;;;;8.61;59.74;101939.81;5027709;28;20043;-56
2023/12/03 05:13:05;;;;;;;7.32;5.38;;;;;;;8.61;59.65;101937.16;5028375;28;20103;-56
2023/12/03 05:15:30;;;;;;;8.20;5.30;;;;;;;8.61;59.60;101940.66;5029374;28;20828;-56
2023/12/03 05:17:56;;;;;;;6.25;4.50;;;;;;;8.60;59.63;101944.25;5029859;28;20040;-56
2023/12/03 05:20:21;;;;;;;7.40;4.90;;;;;;;8.61;60.07;101943.31;5028705;28;20388;-56
2023/12/03 05:22:47;;;;;;;8.07;5.50;;;;;;;8.60;59.73;101954.88;5028724;28;20030;-56
2023/12/03 05:25:13;;;;;;;6.63;4.97;;;;;;;8.60;59.70;101941.63;5027830;28;20035;-56
2023/12/03 05:27:38;;;;;;;6.88;4.68;;;;;;;8.59;59.69;101942.53;5027884;28;20036;-56
2023/12/03 05:30:04;;;;;;;6.05;4.30;;;;;;;8.59;59.66;101947.81;5028666;28;20495;-56
2023/12/03 05:32:29;;;;;;;8.05;5.18;;;;;;;8.59;59.84;101945.16;5027512;28;20033;-56
2023/12/03 05:34:55;;;;;;;7.68;5.20;;;;;;;8.59;59.66;101942.53;5028609;28;20025;-56
2023/12/03 05:37:21;;;;;;;6.68;5.10;;;;;;;8.59;59.59;101947.81;5027450;28;20116;-56
2023/12/03 05:39:46;;;;;;;6.80;4.88;;;;;;;8.59;59.66;101947.81;5027634;28;20034;-56
2023/12/03 05:42:13;;;;;;;7.97;4.78;;;;;;;8.59;59.61;101953.13;5027596;28;20124;-56
2023/12/03 05:44:38;;;;;;;9.05;5.50;;;;;;;8.59;59.75;101942.53;5027837;28;20466;-56
2023/12/03 05:47:04;;;;;;;7.68;4.90;;;;;;;8.56;59.86;101942.63;5027458;28;20033;-56
2023/12/03 05:49:29;;;;;;;7.70;5.18;;;;;;;8.57;59.83;101949.69;5027127;28;20463;-56
2023/12/03 05:51:56;;;;;;;7.40;5.28;;;;;;;8.58;59.84;101958.50;5031088;28;20087;-56
2023/12/03 05:54:21;;;;;;;7.03;4.90;;;;;;;8.57;59.71;101951.47;5027879;28;20064;-55
2023/12/03 05:56:46;;;;;;;7.10;5.03;;;;;;;8.58;59.83;101950.53;5030513;28;20104;-56
2023/12/03 05:59:12;;;;;;;6.28;4.45;;;;;;;8.57;59.63;101955.00;5023035;28;20113;-55
2023/12/03 06:01:38;;;;;;;8.00;5.07;;;;;;;8.56;59.64;101958.56;5027046;28;20060;-56
2023/12/03 06:04:06;;;;;;;8.15;5.32;;;;;;;8.56;59.66;101963.00;5030187;28;20087;-56
2023/12/03 06:06:36;;;;;;;7.38;4.90;;;;;;;8.55;59.64;101956.84;5027063;28;20044;-56
2023/12/03 06:09:04;;;;;;;6.20;4.45;;;;;;;8.55;59.70;101964.81;5027427;28;20033;-56
2023/12/03 06:11:29;;;;;;;8.32;5.15;;;;;;;8.55;59.49;101962.16;5026983;28;20029;-56
2023/12/03 06:13:57;;;;;;;7.93;5.25;;;;;;;8.56;59.65;101963.00;5027614;28;20029;-56
2023/12/03 06:16:23;;;;;;;9.45;5.72;;;;;;;8.56;59.56;101968.31;5027217;28;20079;-55
2023/12/03 06:18:49;;;;;;;8.55;5.25;;;;;;;8.55;59.85;101970.09;5030188;28;20391;-56
2023/12/03 06:21:14;;;;;;;8.80;5.40;;;;;;;8.55;59.70;101972.75;5027346;28;20026;-55
2023/12/03 06:23:39;;;;;;;7.20;5.00;;;;;;;8.55;59.62;101982.53;5026942;28;20057;-56
2023/12/03 06:26:05;;;;;;;7.22;5.05;;;;;;;8.54;59.63;101976.31;5027663;28;20071;-55
2023/12/03 06:28:31;;;;;;;10.00;6.22;;;;;;;8.55;59.67;101977.22;5026696;28;20463;-55
2023/12/03 06:30:56;;;;;;;7.45;4.50;;;;;;;8.54;59.68;101986.94;5027835;28;20386;-55
2023/12/03 06:33:21;;;;;;;8.45;5.70;;;;;;;8.54;59.68;101981.63;5021428;28;20383;-55
2023/12/03 06:35:47;;;;;;;8.80;5.50;;;;;;;8.54;59.57;101986.94;5026949;28;20033;-56
2023/12/03 06:38:12;;;;;;;6.88;4.57;;;;;;;8.54;59.68;101989.59;5030273;28;20040;-55
2023/12/03 06:40:38;;;;;;;8.07;5.05;;;;;;;8.53;59.65;101979.03;5030487;28;20115;-56
2023/12/03 06:43:03;;;;;;;7.93;4.75;;;;;;;8.55;59.68;101974.56;5030765;28;20044;-55
2023/12/03 06:45:28;;;;;;;9.18;5.53;;;;;;;8.54;59.61;101964.84;5031679;28;20030;-55
2023/12/03 06:47:54;;;;;;;8.45;5.50;;;;;;;8.52;59.58;101967.56;5030370;28;20405;-55
2023/12/03 06:50:19;;;;;;;10.38;5.75;;;;;;;8.52;59.73;101962.25;5033107;28;20033;-55
2023/12/03 06:52:45;;;;;;;7.93;4.78;;;;;;;8.52;59.69;101967.56;5033830;28;20041;-55
2023/12/03 06:55:11;;;;;;;8.50;5.82;;;;;;;8.51;59.68;101960.53;5030777;28;20045;-55
2023/12/03 06:57:37;;;;;;;8.68;5.22;;;;;;;8.52;59.71;101974.66;5031062;28;20034;-55
2023/12/03 07:00:06;;;;;;;8.57;5.32;;;;;;;8.50;59.60;101969.41;5034388;28;20053;-55
2023/12/03 07:02:32;;;;;;;5.90;4.85;;;;;;;8.52;59.66;101966.69;5031065;28;20034;-55
2023/12/03 07:04:57;;;;;;;7.53;5.10;;;;;;;8.51;59.84;101968.50;5031113;28;20427;-56
2023/12/03 07:07:22;;;;;;;7.75;4.97;;;;;;;8.51;59.60;101968.50;5029864;28;20037;-55
2023/12/03 07:09:48;;;;;;;8.95;5.60;;;;;;;8.51;59.55;101968.50;5030924;28;20068;-56
2023/12/03 07:12:13;;;;;;;7.63;5.03;;;;;;;8.50;59.60;101969.41;5030684;28;20030;-55
2023/12/03 07:14:38;;;;;;;8.30;4.97;;;;;;;8.52;59.54;101969.34;5029954;28;20044;-55
2023/12/03 07:17:04;;;;;;;8.70;5.82;;;;;;;8.51;59.52;101967.59;5029099;28;20403;-55
2023/12/03 07:19:29;;;;;;;8.77;5.15;;;;;;;8.50;59.50;101968.53;5030123;28;20037;-55
2023/12/03 07:21:54;;;;;;;9.50;5.22;;;;;;;8.50;59.50;101974.72;5048894;28;20079;-55
2023/12/03 07:24:21;;;;;;;5.97;4.85;;;;;;;8.50;59.62;101973.84;5030519;28;20040;-55
2023/12/03 07:26:46;;;;;;;9.10;5.63;;;;;;;8.50;59.58;101982.69;5025670;28;20387;-55
2023/12/03 07:29:12;;;;;;;10.27;5.53;;;;;;;8.49;59.33;101973.00;5033147;28;20116;-55
2023/12/03 07:31:37;;;;;;;7.88;5.22;;;;;;;8.50;59.69;101980.03;5029722;28;20030;-56
2023/12/03 07:34:03;;;;;;;7.43;5.10;;;;;;;8.49;59.48;101983.63;5033373;28;20025;-55
2023/12/03 07:36:29;;;;;;;7.90;5.50;;;;;;;8.48;59.34;101981.88;5030601;28;20038;-55
2023/12/03 07:38:54;;;;;;;8.43;5.35;;;;;;;8.48;59.54;101984.53;5036404;28;20045;-55
2023/12/03 07:41:19;;;;;;;7.55;5.25;;;;;;;8.48;59.69;101989.84;5029982;28;20033;-56
2023/12/03 07:43:45;;;;;;;7.97;5.55;;;;;;;8.49;59.46;101988.94;5029815;28;20368;-56
2023/12/03 07:46:16;;;;;;;9.57;5.25;;;;;;;8.49;59.62;101982.72;5030119;28;20360;-56
2023/12/03 07:48:42;;;;;;;6.80;4.72;;;;;;;8.48;59.47;101984.53;5030927;28;20471;-56
2023/12/03 07:51:11;;;;;;;7.18;4.50;;;;;;;8.48;59.55;101984.53;5029830;28;20043;-56
2023/12/03 07:53:37;;;;;;;8.27;4.80;;;;;;;8.47;59.63;101980.13;5028858;28;20037;-56
2023/12/03 07:56:03;;;;;;;9.00;5.43;;;;;;;8.47;59.45;101980.13;5029963;28;20120;-56
2023/12/03 07:58:29;;;;;;;8.52;5.18;;;;;;;8.47;59.56;101988.09;5030219;28;20065;-56
2023/12/03 08:00:54;;;;;;;7.10;5.25;;;;;;;8.48;59.66;101983.66;5028536;28;20084;-56
2023/12/03 08:03:19;;;;;;;8.15;5.30;;;;;;;8.46;59.46;101991.69;5028789;28;20457;-56
2023/12/03 08:05:45;;;;;;;8.02;4.80;;;;;;;8.48;59.41;101986.31;5029102;28;20140;-56
2023/12/03 08:08:10;;;;;;;7.85;5.18;;;;;;;8.46;59.48;101989.03;5026872;28;20037;-56
2023/12/03 08:10:36;;;;;;;8.10;4.88;;;;;;;8.47;59.55;101996.03;5029249;28;20055;-55
2023/12/03 08:13:01;;;;;;;8.43;4.78;;;;;;;8.46;59.53;101997.00;5031019;28;20040;-55
2023/12/03 08:15:26;;;;;;;9.70;4.97;;;;;;;8.47;59.53;101995.19;5027389;28;20049;-56
2023/12/03 08:17:52;;;;;;;9.20;5.88;;;;;;;8.46;59.64;102002.28;5030398;28;20388;-57
2023/12/03 08:20:17;;;;;;;8.90;5.28;;;;;;;8.46;59.46;101999.63;5025554;28;20061;-56
2023/12/03 08:22:43;;;;;;;8.35;5.18;;;;;;;8.46;59.58;102010.25;5024997;28;20025;-56
2023/12/03 08:25:08;;;;;;;8.63;4.95;;;;;;;8.46;59.38;102010.25;5028711;28;20095;-56
2023/12/03 08:27:34;;;;;;;7.95;4.85;;;;;;;8.45;59.47;102013.81;5028055;28;20040;-56
2023/12/03 08:29:59;;;;;;;7.55;5.13;;;;;;;8.47;59.42;102011.13;5028929;28;20033;-55
2023/12/03 08:32:24;;;;;;;8.20;4.95;;;;;;;8.47;59.44;102019.06;5027739;28;20536;-56
2023/12/03 08:34:50;;;;;;;7.65;5.03;;;;;;;8.46;59.42;102009.41;5028754;28;20039;-56
2023/12/03 08:37:15;;;;;;;6.18;4.57;;;;;;;8.46;59.43;102020.88;5025085;28;20103;-56
2023/12/03 08:39:41;;;;;;;7.70;4.80;;;;;;;8.46;59.34;102012.06;5028325;28;20483;-56
2023/12/03 08:42:07;;;;;;;7.25;4.80;;;;;;;8.46;59.47;102020.00;5028543;28;20045;-56
2023/12/03 08:44:33;;;;;;;9.05;5.40;;;;;;;8.45;59.36;102013.81;5028519;28;20028;-56
2023/12/03 08:46:59;;;;;;;9.55;5.07;;;;;;;8.44;59.40;102022.72;5027104;28;20036;-56
2023/12/03 08:49:24;;;;;;;7.35;4.50;;;;;;;8.44;59.51;102028.03;5027761;28;20112;-56
2023/12/03 08:51:50;;;;;;;8.10;4.75;;;;;;;8.45;59.46;102032.41;5022280;28;20052;-57
2023/12/03 08:54:15;;;;;;;6.38;4.30;;;;;;;8.45;59.40;102026.22;5034261;28;20379;-56
2023/12/03 08:56:42;;;;;;;8.07;4.85;;;;;;;8.46;59.52;102033.28;5025939;28;20961;-56
2023/12/03 08:59:08;;;;;;;8.50;4.30;;;;;;;8.46;59.45;102030.63;5026643;28;20041;-56
2023/12/03 09:01:33;;;;;;;8.85;4.97;;;;;;;8.45;59.40;102028.88;5022986;28;20056;-56
2023/12/03 09:03:58;;;;;;;7.15;4.68;;;;;;;8.45;59.46;102027.09;5024041;28;20029;-56
2023/12/03 09:06:24;;;;;;;8.65;5.03;;;;;;;8.45;59.43;102031.53;5027245;28;20789;-56
2023/12/03 09:08:50;;;;;;;8.10;5.20;;;;;;;8.46;59.45;102027.97;5024250;28;20033;-56
2023/12/03 09:11:15;;;;;;;6.63;4.57;;;;;;;8.46;59.47;102035.94;5024536;28;20037;-56
2023/12/03 09:13:40;;;;;;;8.00;4.28;;;;;;;8.45;59.28;102029.75;5026846;28;20023;-56
2023/12/03 09:16:06;;;;;;;6.65;4.13;;;;;;;8.45;59.38;102028.88;5029466;28;20053;-56
2023/12/03 09:18:37;;;;;;;8.88;5.18;;;;;;;8.45;59.37;102044.81;5028344;28;20037;-56
2023/12/03 09:21:03;;;;;;;6.30;4.15;;;;;;;8.45;59.37;102034.19;5028622;28;20025;-56
2023/12/03 09:23:29;;;;;;;5.57;3.97;;;;;;;8.46;59.45;102033.28;5028589;28;20029;-56
2023/12/03 09:25:54;;;;;;;6.82;4.40;;;;;;;8.44;59.44;102041.31;5028629;28;20052;-56
2023/12/03 09:28:19;;;;;;;6.63;4.35;;;;;;;8.44;59.55;102043.94;5028430;28;20075;-56
2023/12/03 09:30:45;;;;;;;6.35;4.03;;;;;;;8.44;59.47;102043.09;5030773;28;20534;-56
2023/12/03 09:33:10;;;;;;;7.65;4.90;;;;;;;8.44;59.78;102040.44;5028082;28;20471;-56
2023/12/03 09:35:35;;;;;;;7.00;4.88;;;;;;;8.44;59.57;102037.78;5027718;28;20082;-56
2023/12/03 09:38:01;;;;;;;7.78;5.43;;;;;;;8.44;59.51;102032.47;5027675;28;20119;-56
2023/12/03 09:40:26;;;;;;;8.38;4.65;;;;;;;8.45;59.57;102028.88;5030770;28;20030;-56
2023/12/03 09:42:52;;;;;;;5.72;4.28;;;;;;;8.44;59.46;102029.81;5021949;28;20486;-55
2023/12/03 09:45:19;;;;;;;6.72;4.10;;;;;;;8.44;59.59;102032.47;5025446;28;20033;-56
2023/12/03 09:47:49;;;;;;;5.90;4.10;;;;;;;8.43;59.58;102031.59;5045782;28;20254;-56
2023/12/03 09:50:15;;;;;;;6.25;4.28;;;;;;;8.44;59.53;102033.34;5030714;28;20119;-56
2023/12/03 09:52:42;;;;;;;6.32;4.32;;;;;;;8.44;59.53;102021.88;5027960;28;20126;-55
2023/12/03 09:55:08;;;;;;;6.80;4.25;;;;;;;8.44;59.50;102021.88;5027263;28;20043;-56
2023/12/03 09:57:34;;;;;;;6.38;3.85;;;;;;;8.44;59.61;102027.16;5027012;28;20033;-56
2023/12/03 10:00:04;;;;;;;6.22;4.28;;;;;;;8.44;59.47;102029.81;5028798;28;20064;-56
2023/12/03 10:02:31;;;;;;;6.45;3.90;;;;;;;8.43;59.56;102025.41;5028122;28;20517;-56
2023/12/03 10:04:57;;;;;;;5.63;3.72;;;;;;;8.43;59.48;102026.28;5029140;28;20053;-55
2023/12/03 10:07:26;;;;;;;9.88;4.70;;;;;;;8.43;59.40;102031.59;5028601;28;20517;-55
2023/12/03 10:09:54;;;;;;;6.97;4.05;;;;;;;8.44;59.46;102027.16;5027925;28;20029;-55
2023/12/03 10:12:24;;;;;;;4.90;3.67;;;;;;;8.44;59.53;102019.22;5026923;28;20033;-56
2023/12/03 10:14:50;;;;;;;5.10;3.50;;;;;;;8.43;59.46;102013.00;5028949;28;20068;-55
2023/12/03 10:17:22;;;;;;;5.93;4.18;;;;;;;8.44;59.54;102016.56;5026673;28;20461;-56
2023/12/03 10:19:47;;;;;;;5.95;3.88;;;;;;;8.44;59.70;102011.25;5027236;28;20113;-56
2023/12/03 10:22:13;;;;;;;6.13;3.88;;;;;;;8.43;59.51;101999.75;5028375;28;20120;-56
2023/12/03 10:24:49;;;;;;;5.30;3.47;;;;;;;8.45;59.59;102010.31;5028221;28;20045;-56
2023/12/03 10:27:15;;;;;;;5.40;3.58;;;;;;;8.44;59.51;102005.94;5024997;28;20426;-55
2023/12/03 10:29:40;;;;;;;6.68;4.18;;;;;;;8.43;59.33;102005.03;5028142;28;20021;-56
2023/12/03 10:32:08;;;;;;;6.15;4.07;;;;;;;8.44;59.51;102006.78;5028354;28;20030;-56
2023/12/03 10:34:33;;;;;;;4.75;3.35;;;;;;;8.43;59.59;102002.41;5024156;28;20060;-56
2023/12/03 10:37:00;;;;;;;5.18;3.80;;;;;;;8.44;59.61;101992.66;5029902;28;20029;-56
2023/12/03 10:39:26;;;;;;;6.82;3.78;;;;;;;8.43;59.58;101991.78;5023247;28;20506;-56
2023/12/03 10:41:51;;;;;;;8.02;4.00;;;;;;;8.44;59.70;101990.00;5023497;28;20065;-55
2023/12/03 10:44:24;;;;;;;5.28;3.40;;;;;;;8.44;59.62;101984.72;5025490;28;20053;-56
2023/12/03 10:46:50;;;;;;;5.70;3.72;;;;;;;8.44;59.53;101984.72;5031306;28;20387;-56
2023/12/03 10:49:16;;;;;;;6.70;4.10;;;;;;;8.43;59.52;101978.50;5028114;28;20465;-56
2023/12/03 10:51:42;;;;;;;5.70;3.88;;;;;;;8.43;59.63;101978.50;5028427;28;20124;-56
2023/12/03 10:54:08;;;;;;;5.78;4.00;;;;;;;8.43;59.46;101983.81;5030394;28;20376;-56
2023/12/03 10:56:34;;;;;;;6.25;3.95;;;;;;;8.44;59.78;101974.09;5029875;28;20095;-56
2023/12/03 10:59:04;;;;;;;7.55;4.43;;;;;;;8.44;59.60;101974.94;5026525;28;20045;-56
2023/12/03 11:01:31;;;;;;;5.00;3.60;;;;;;;8.44;59.59;101971.44;5035350;28;20030;-56
2023/12/03 11:04:19;;;;;;;5.57;3.85;;;;;;;8.44;59.55;101971.44;5029543;28;20079;-56
2023/12/03 11:06:49;;;;;;;4.82;3.45;;;;;;;8.44;59.61;101964.34;5026788;28;20069;-56
2023/12/03 11:09:15;;;;;;;6.15;4.20;;;;;;;8.45;59.55;101965.19;5026644;28;20479;-56
2023/12/03 11:11:41;;;;;;;6.35;3.92;;;;;;;8.44;59.68;101963.47;5028902;28;20036;-56
2023/12/03 11:14:06;;;;;;;6.00;4.07;;;;;;;8.44;59.66;101956.38;5024702;28;20017;-56
2023/12/03 11:16:47;;;;;;;6.90;3.88;;;;;;;8.45;59.69;101954.56;5029121;28;20033;-56
2023/12/03 11:19:17;;;;;;;5.15;3.38;;;;;;;8.44;59.61;101945.75;5027420;28;20018;-56
2023/12/03 11:22:03;;;;;;;6.05;3.67;;;;;;;8.46;59.67;101946.56;5027230;28;20030;-56
2023/12/03 11:24:50;;;;;;;5.88;3.38;;;;;;;8.47;59.63;101928.84;5027089;28;20434;-55
2023/12/03 11:27:16;;;;;;;4.85;3.28;;;;;;;8.46;59.63;101937.75;5029316;28;20116;-56